createdAt,value
2022-11-27T00:01:00.162Z,25.10
2022-11-27T00:03:28.370Z,20.27
2022-11-27T00:05:58.508Z,23.10
2022-11-27T00:08:26.811Z,21.90
2022-11-27T00:10:56.219Z,23.20
2022-11-27T00:13:24.589Z,22.03
2022-11-27T00:15:52.816Z,25.57
2022-11-27T00:18:20.985Z,23.37
2022-11-27T00:20:49.039Z,22.13
2022-11-27T00:23:17.155Z,24.77
2022-11-27T00:25:51.583Z,23.07
2022-11-27T00:28:21.525Z,23.30
2022-11-27T00:30:49.620Z,25.33
2022-11-27T00:33:17.790Z,26.07
2022-11-27T00:35:46.061Z,24.83
2022-11-27T00:38:14.113Z,27.20
2022-11-27T00:40:42.177Z,25.07
2022-11-27T00:43:10.374Z,25.87
2022-11-27T00:45:39.941Z,26.63
2022-11-27T00:48:08.048Z,29.20
2022-11-27T00:50:36.094Z,30.17
2022-11-27T00:53:04.213Z,27.47
2022-11-27T00:55:32.355Z,28.00
2022-11-27T00:58:00.461Z,28.30
2022-11-27T01:00:28.554Z,24.97
2022-11-27T01:02:58.090Z,25.77
2022-11-27T01:05:26.258Z,27.13
2022-11-27T01:07:54.429Z,24.03
2022-11-27T01:10:22.496Z,26.23
2022-11-27T01:12:50.986Z,26.03
2022-11-27T01:15:19.160Z,28.10
2022-11-27T01:17:47.269Z,23.80
2022-11-27T01:20:18.648Z,21.87
2022-11-27T01:22:46.769Z,26.17
2022-11-27T01:25:14.843Z,25.33
2022-11-27T01:27:42.903Z,24.23
2022-11-27T01:30:12.256Z,23.20
2022-11-27T01:32:40.337Z,18.23
2022-11-27T01:35:09.784Z,23.37
2022-11-27T01:37:39.233Z,19.43
2022-11-27T01:40:08.932Z,23.77
2022-11-27T01:42:37.024Z,20.47
2022-11-27T01:45:05.547Z,25.83
2022-11-27T01:47:44.781Z,20.07
2022-11-27T01:50:21.392Z,22.23
2022-11-27T01:52:58.955Z,18.13
2022-11-27T01:55:31.747Z,19.17
2022-11-27T01:58:05.172Z,20.60
2022-11-27T02:00:33.745Z,15.30
2022-11-27T02:03:01.911Z,22.07
2022-11-27T02:05:30.841Z,23.40
2022-11-27T02:08:03.863Z,15.77
2022-11-27T02:10:43.878Z,18.83
2022-11-27T02:13:18.404Z,20.03
2022-11-27T02:15:53.717Z,20.37
2022-11-27T02:18:27.657Z,20.63
2022-11-27T02:21:00.773Z,21.73
2022-11-27T02:23:59.868Z,17.17
2022-11-27T02:27:04.613Z,15.20
2022-11-27T02:29:36.031Z,26.50
2022-11-27T02:32:25.977Z,19.03
2022-11-27T02:35:00.252Z,22.67
2022-11-27T02:37:34.923Z,19.97
2022-11-27T02:40:06.152Z,20.80
2022-11-27T02:42:37.388Z,19.30
2022-11-27T02:45:12.124Z,26.43
2022-11-27T02:47:42.375Z,18.17
2022-11-27T02:50:13.502Z,18.37
2022-11-27T02:52:43.415Z,27.43
2022-11-27T02:55:16.579Z,21.77
2022-11-27T02:57:46.697Z,20.43
2022-11-27T03:00:17.288Z,20.33
2022-11-27T03:02:51.523Z,24.43
2022-11-27T03:05:22.883Z,27.93
2022-11-27T03:07:55.344Z,23.20
2022-11-27T03:10:30.488Z,21.83
2022-11-27T03:13:00.044Z,23.40
2022-11-27T03:15:38.723Z,28.67
2022-11-27T03:18:13.713Z,25.53
2022-11-27T03:20:43.516Z,29.00
2022-11-27T03:23:11.620Z,22.27
2022-11-27T03:25:39.846Z,23.73
2022-11-27T03:28:10.759Z,21.27
2022-11-27T03:30:41.967Z,21.07
2022-11-27T03:33:10.356Z,27.30
2022-11-27T03:35:38.605Z,23.07
2022-11-27T03:38:06.904Z,23.10
2022-11-27T03:40:42.951Z,25.43
2022-11-27T03:43:15.885Z,24.00
2022-11-27T03:45:53.474Z,22.20
2022-11-27T03:48:28.789Z,20.50
2022-11-27T03:51:06.685Z,28.13
2022-11-27T03:53:42.610Z,27.13
2022-11-27T03:56:15.484Z,23.67
2022-11-27T03:58:48.555Z,25.77
2022-11-27T04:01:20.669Z,29.47
2022-11-27T04:03:48.806Z,28.63
2022-11-27T04:06:17.017Z,28.23
2022-11-27T04:08:45.870Z,32.33
2022-11-27T04:11:14.059Z,26.97
2022-11-27T04:13:42.258Z,30.37
2022-11-27T04:16:10.436Z,32.37
2022-11-27T04:18:39.938Z,30.40
2022-11-27T04:21:08.002Z,29.80
2022-11-27T04:23:37.707Z,34.43
2022-11-27T04:26:06.246Z,35.37
2022-11-27T04:28:34.283Z,31.87
2022-11-27T04:31:02.579Z,30.53
2022-11-27T04:33:30.658Z,36.57
2022-11-27T04:36:00.136Z,34.10
2022-11-27T04:38:28.288Z,33.13
2022-11-27T04:40:57.848Z,32.37
2022-11-27T04:43:25.905Z,31.20
2022-11-27T04:45:53.952Z,35.43
2022-11-27T04:48:21.995Z,31.27
2022-11-27T04:50:50.109Z,25.97
2022-11-27T04:53:19.536Z,37.37
2022-11-27T04:55:47.592Z,33.93
2022-11-27T04:58:15.632Z,34.47
2022-11-27T05:00:43.739Z,30.80
2022-11-27T05:03:12.212Z,26.23
2022-11-27T05:05:40.356Z,31.30
2022-11-27T05:08:08.409Z,37.00
2022-11-27T05:10:37.866Z,30.67
2022-11-27T05:13:05.925Z,32.87
2022-11-27T05:15:33.961Z,33.67
2022-11-27T05:18:02.134Z,31.53
2022-11-27T05:20:30.165Z,56.13
2022-11-27T05:22:58.215Z,33.20
2022-11-27T05:25:26.263Z,29.77
2022-11-27T05:27:56.078Z,31.57
2022-11-27T05:30:24.179Z,34.03
2022-11-27T05:32:52.267Z,31.83
2022-11-27T05:35:20.364Z,31.97
2022-11-27T05:37:48.450Z,39.53
2022-11-27T05:40:16.627Z,54.50
2022-11-27T05:42:44.673Z,39.77
2022-11-27T05:45:14.156Z,33.77
2022-11-27T05:47:42.255Z,34.57
2022-11-27T05:50:10.722Z,34.77
2022-11-27T05:52:38.844Z,27.70
2022-11-27T05:55:07.914Z,34.93
2022-11-27T05:57:35.971Z,33.00
2022-11-27T06:00:04.988Z,34.03
2022-11-27T06:02:34.908Z,32.90
2022-11-27T06:05:02.988Z,35.90
2022-11-27T06:07:32.831Z,38.77
2022-11-27T06:10:00.896Z,32.57
2022-11-27T06:12:28.985Z,26.90
2022-11-27T06:14:57.006Z,32.50
2022-11-27T06:17:25.053Z,36.10
2022-11-27T06:19:54.545Z,31.90
2022-11-27T06:22:22.820Z,33.67
2022-11-27T06:24:51.279Z,32.27
2022-11-27T06:27:19.356Z,35.00
2022-11-27T06:29:47.393Z,34.67
2022-11-27T06:32:15.518Z,31.90
2022-11-27T06:34:43.564Z,73.40
2022-11-27T06:37:13.584Z,40.67
2022-11-27T06:39:41.782Z,48.27
2022-11-27T06:42:09.973Z,102.03
2022-11-27T06:44:38.180Z,61.87
2022-11-27T06:47:06.517Z,140.30
2022-11-27T06:49:34.619Z,76.00
2022-11-27T06:52:03.218Z,142.63
2022-11-27T06:54:32.766Z,104.37
2022-11-27T06:57:00.828Z,189.23
2022-11-27T06:59:29.064Z,205.93
2022-11-27T07:01:57.155Z,229.47
2022-11-27T07:04:25.283Z,316.60
2022-11-27T07:06:55.627Z,51.17
2022-11-27T07:09:23.705Z,82.87
2022-11-27T07:11:53.102Z,132.67
2022-11-27T07:14:21.195Z,238.30
2022-11-27T07:16:49.310Z,275.00
2022-11-27T07:19:17.460Z,484.50
2022-11-27T07:21:45.504Z,227.43
2022-11-27T07:24:13.558Z,260.77
2022-11-27T07:26:41.598Z,117.83
2022-11-27T07:29:11.043Z,125.93
2022-11-27T07:31:39.160Z,190.70
2022-11-27T07:34:14.127Z,190.23
2022-11-27T07:36:44.144Z,70.80
2022-11-27T07:39:12.260Z,77.03
2022-11-27T07:41:40.332Z,248.00
2022-11-27T07:44:08.387Z,332.60
2022-11-27T07:46:37.847Z,38.77
2022-11-27T07:49:05.945Z,251.80
2022-11-27T07:51:34.051Z,100.73
2022-11-27T07:54:02.149Z,76.30
2022-11-27T07:56:30.577Z,60.13
2022-11-27T07:58:59.415Z,262.83
2022-11-27T08:01:27.693Z,126.87
2022-11-27T08:03:57.444Z,198.93
2022-11-27T08:06:27.594Z,206.03
2022-11-27T08:08:56.805Z,163.77
2022-11-27T08:11:26.537Z,227.07
2022-11-27T08:13:59.008Z,180.73
2022-11-27T08:16:27.359Z,62.60
2022-11-27T08:18:57.046Z,43.93
2022-11-27T08:21:25.368Z,98.53
2022-11-27T08:23:53.667Z,160.07
2022-11-27T08:26:22.092Z,82.13
2022-11-27T08:28:52.993Z,62.33
2022-11-27T08:31:21.617Z,106.60
2022-11-27T08:33:50.139Z,39.03
2022-11-27T08:36:19.582Z,205.87
2022-11-27T08:38:48.063Z,243.67
2022-11-27T08:41:16.189Z,253.37
2022-11-27T08:43:44.328Z,36.83
2022-11-27T08:46:12.705Z,186.47
2022-11-27T08:48:41.876Z,73.47
2022-11-27T08:51:12.074Z,175.10
2022-11-27T08:53:41.634Z,145.30
2022-11-27T08:56:12.878Z,357.27
2022-11-27T08:58:41.751Z,205.07
2022-11-27T09:01:12.518Z,491.60
2022-11-27T09:03:40.790Z,294.63
2022-11-27T09:06:10.492Z,154.67
2022-11-27T09:08:39.340Z,71.57
2022-11-27T09:11:10.741Z,141.50
2022-11-27T09:13:40.301Z,65.03
2022-11-27T09:16:10.529Z,82.10
2022-11-27T09:18:38.940Z,121.33
2022-11-27T09:21:09.138Z,93.20
2022-11-27T09:23:38.068Z,85.53
2022-11-27T09:26:09.607Z,280.90
2022-11-27T09:28:38.827Z,81.37
2022-11-27T09:31:09.404Z,144.27
2022-11-27T09:33:39.318Z,89.57
2022-11-27T09:36:09.468Z,95.93
2022-11-27T09:38:38.276Z,92.37
2022-11-27T09:41:36.634Z,104.47
2022-11-27T09:44:16.029Z,90.00
2022-11-27T09:46:44.846Z,161.73
2022-11-27T09:49:16.993Z,154.13
2022-11-27T09:51:51.478Z,43.87
2022-11-27T09:54:24.476Z,46.47
2022-11-27T09:56:55.983Z,43.77
2022-11-27T09:59:28.823Z,44.13
2022-11-27T10:01:57.708Z,44.67
2022-11-27T10:04:28.303Z,45.00
2022-11-27T10:07:13.971Z,42.60
2022-11-27T10:10:01.043Z,42.13
2022-11-27T10:12:36.978Z,43.83
2022-11-27T10:15:12.037Z,44.30
2022-11-27T10:17:44.521Z,41.93
2022-11-27T10:20:23.488Z,40.37
2022-11-27T10:22:58.241Z,50.00
2022-11-27T10:25:33.579Z,41.33
2022-11-27T10:28:15.460Z,48.13
2022-11-27T10:30:52.272Z,49.20
2022-11-27T10:33:26.215Z,42.20
2022-11-27T10:35:54.835Z,43.17
2022-11-27T10:38:26.577Z,42.20
2022-11-27T10:41:06.457Z,37.20
2022-11-27T10:43:37.173Z,38.87
2022-11-27T10:46:12.599Z,35.80
2022-11-27T10:48:40.807Z,37.73
2022-11-27T10:51:16.401Z,37.00
2022-11-27T10:53:47.276Z,35.10
2022-11-27T10:56:41.055Z,38.23
2022-11-27T10:59:14.994Z,35.37
2022-11-27T11:01:45.319Z,36.57
2022-11-27T11:04:36.280Z,32.53
2022-11-27T11:07:03.920Z,32.03
2022-11-27T11:09:35.036Z,35.50
2022-11-27T11:12:18.908Z,28.00
2022-11-27T11:14:53.923Z,32.60
2022-11-27T11:17:26.476Z,26.00
2022-11-27T11:19:54.896Z,30.97
2022-11-27T11:22:23.679Z,31.67
2022-11-27T11:24:54.364Z,28.17
2022-11-27T11:27:27.365Z,25.47
2022-11-27T11:30:00.740Z,22.23
2022-11-27T11:32:31.492Z,23.50
2022-11-27T11:35:02.953Z,27.40
2022-11-27T11:37:33.254Z,24.23
2022-11-27T11:40:05.796Z,21.83
2022-11-27T11:42:36.436Z,22.83
2022-11-27T11:45:17.376Z,20.67
2022-11-27T11:47:47.605Z,21.57
2022-11-27T11:50:17.894Z,20.90
2022-11-27T11:52:56.801Z,21.83
2022-11-27T11:55:32.228Z,19.40
2022-11-27T11:58:38.991Z,24.87
2022-11-27T12:01:27.182Z,25.23
2022-11-27T12:04:21.813Z,23.73
2022-11-27T12:07:01.359Z,21.90
2022-11-27T12:09:45.085Z,24.90
2022-11-27T12:12:22.709Z,25.33
2022-11-27T12:14:56.120Z,25.00
2022-11-27T12:17:40.533Z,25.10
2022-11-27T12:20:19.402Z,23.27
2022-11-27T12:23:22.155Z,24.57
2022-11-27T12:25:58.679Z,23.17
2022-11-27T12:28:45.671Z,22.80
2022-11-27T12:31:23.616Z,25.70
2022-11-27T12:34:03.470Z,23.13
2022-11-27T12:36:55.414Z,21.23
2022-11-27T12:39:26.857Z,22.90
2022-11-27T12:42:07.858Z,21.83
2022-11-27T12:44:45.031Z,21.63
2022-11-27T12:47:20.147Z,22.97
2022-11-27T12:49:55.984Z,24.43
2022-11-27T12:52:27.088Z,29.17
2022-11-27T12:55:03.023Z,19.47
2022-11-27T12:57:37.772Z,27.93
2022-11-27T13:00:09.099Z,21.60
2022-11-27T13:02:42.774Z,22.93
2022-11-27T13:05:20.355Z,33.30
2022-11-27T13:07:52.392Z,20.33
2022-11-27T13:10:27.171Z,26.60
2022-11-27T13:13:03.569Z,30.47
2022-11-27T13:15:35.635Z,29.20
2022-11-27T13:18:15.171Z,21.00
2022-11-27T13:20:50.810Z,22.10
2022-11-27T13:23:20.994Z,22.70
2022-11-27T13:25:53.737Z,24.30
2022-11-27T13:28:28.236Z,23.50
2022-11-27T13:31:00.629Z,23.63
2022-11-27T13:33:39.747Z,22.27
2022-11-27T13:36:20.669Z,20.10
2022-11-27T13:38:56.385Z,19.43
2022-11-27T13:41:30.281Z,19.70
2022-11-27T13:43:58.976Z,22.90
2022-11-27T13:46:29.444Z,23.10
2022-11-27T13:49:02.687Z,21.70
2022-11-27T13:51:34.418Z,16.90
2022-11-27T13:54:10.059Z,17.37
2022-11-27T13:56:38.764Z,21.17
2022-11-27T13:59:21.671Z,19.70
2022-11-27T14:01:58.517Z,20.50
2022-11-27T14:04:26.716Z,23.33
2022-11-27T14:07:00.678Z,21.90
2022-11-27T14:09:39.176Z,21.00
2022-11-27T14:12:25.105Z,22.60
2022-11-27T14:15:03.582Z,21.90
2022-11-27T14:17:40.739Z,22.60
2022-11-27T14:20:24.699Z,27.57
2022-11-27T14:23:12.727Z,31.87
2022-11-27T14:25:42.241Z,24.17
2022-11-27T14:28:16.347Z,24.20
2022-11-27T14:30:49.027Z,22.77
2022-11-27T14:33:20.309Z,20.57
2022-11-27T14:35:52.924Z,23.57
2022-11-27T14:38:22.958Z,27.33
2022-11-27T14:40:53.278Z,28.30
2022-11-27T14:43:25.932Z,25.57
2022-11-27T14:46:00.499Z,25.13
2022-11-27T14:48:31.672Z,29.83
2022-11-27T14:51:00.421Z,23.03
2022-11-27T14:53:30.401Z,26.03
2022-11-27T14:55:59.537Z,21.77
2022-11-27T14:58:28.997Z,28.70
2022-11-27T15:01:00.480Z,23.13
2022-11-27T15:03:29.240Z,23.63
2022-11-27T15:05:59.929Z,18.90
2022-11-27T15:08:31.667Z,26.53
2022-11-27T15:11:01.852Z,29.53
2022-11-27T15:13:33.382Z,21.87
2022-11-27T15:16:05.296Z,22.60
2022-11-27T15:18:37.162Z,22.33
2022-11-27T15:21:11.672Z,20.93
2022-11-27T15:23:46.272Z,24.37
2022-11-27T15:26:21.173Z,25.50
2022-11-27T15:28:54.407Z,23.60
2022-11-27T15:31:32.678Z,22.43
2022-11-27T15:34:06.712Z,22.57
2022-11-27T15:36:40.501Z,19.60
2022-11-27T15:39:20.276Z,22.50
2022-11-27T15:41:53.259Z,20.33
2022-11-27T15:44:21.363Z,21.47
2022-11-27T15:46:50.552Z,18.87
2022-11-27T15:49:19.686Z,22.00
2022-11-27T15:51:47.977Z,20.73
2022-11-27T15:54:17.456Z,20.13
2022-11-27T15:56:46.827Z,19.90
2022-11-27T15:59:15.551Z,18.83
2022-11-27T16:01:43.736Z,18.13
2022-11-27T16:04:11.853Z,18.40
2022-11-27T16:06:40.011Z,18.13
2022-11-27T16:09:08.118Z,19.13
2022-11-27T16:11:37.533Z,20.43
2022-11-27T16:14:05.896Z,18.50
2022-11-27T16:16:35.236Z,18.83
2022-11-27T16:19:06.310Z,17.50
2022-11-27T16:21:35.749Z,17.57
2022-11-27T16:24:06.800Z,23.20
2022-11-27T16:26:35.053Z,18.23
2022-11-27T16:29:04.645Z,16.90
2022-11-27T16:31:32.906Z,19.30
2022-11-27T16:34:02.008Z,16.87
2022-11-27T16:36:30.512Z,23.30
2022-11-27T16:38:58.561Z,24.23
2022-11-27T16:41:27.259Z,23.63
2022-11-27T16:43:57.281Z,23.17
2022-11-27T16:46:28.853Z,16.17
2022-11-27T16:48:58.837Z,23.70
2022-11-27T16:51:29.470Z,24.27
2022-11-27T16:53:59.045Z,22.73
2022-11-27T16:56:28.845Z,22.07
2022-11-27T16:59:02.795Z,17.83
2022-11-27T17:01:36.119Z,15.73
2022-11-27T17:04:07.066Z,20.20
2022-11-27T17:06:35.749Z,16.40
2022-11-27T17:09:06.535Z,14.40
2022-11-27T17:11:36.365Z,14.17
2022-11-27T17:14:06.881Z,15.90
2022-11-27T17:16:37.209Z,15.70
2022-11-27T17:19:05.362Z,12.83
2022-11-27T17:21:35.045Z,12.27
2022-11-27T17:24:10.096Z,17.07
2022-11-27T17:26:43.591Z,14.97
2022-11-27T17:29:12.601Z,14.53
2022-11-27T17:31:42.472Z,17.17
2022-11-27T17:34:13.174Z,16.10
2022-11-27T17:36:42.958Z,15.00
2022-11-27T17:39:13.224Z,15.70
2022-11-27T17:41:41.828Z,19.33
2022-11-27T17:44:09.882Z,18.27
2022-11-27T17:46:40.147Z,15.33
2022-11-27T17:49:09.613Z,15.57
2022-11-27T17:51:38.136Z,17.57
2022-11-27T17:54:06.581Z,22.57
2022-11-27T17:56:35.865Z,17.70
2022-11-27T17:59:04.197Z,17.03
2022-11-27T18:01:34.663Z,19.40
2022-11-27T18:04:04.211Z,17.93
2022-11-27T18:06:35.956Z,19.90
2022-11-27T18:09:04.615Z,20.30
2022-11-27T18:11:34.823Z,18.43
2022-11-27T18:14:03.542Z,19.50
2022-11-27T18:16:33.312Z,20.10
2022-11-27T18:19:04.328Z,19.63
2022-11-27T18:21:33.816Z,18.57
2022-11-27T18:29:39.709Z,19.03
2022-11-27T18:32:08.226Z,21.43
2022-11-27T18:34:36.716Z,20.67
2022-11-27T18:37:06.480Z,21.27
2022-11-27T18:39:35.275Z,24.07
2022-11-27T18:42:05.035Z,21.70
2022-11-27T18:44:33.370Z,23.37
2022-11-27T18:47:01.711Z,23.33
2022-11-27T18:49:29.746Z,25.23
2022-11-27T18:51:58.080Z,27.00
2022-11-27T18:54:27.522Z,28.73
2022-11-27T18:56:55.632Z,22.57
2022-11-27T18:59:24.096Z,22.40
2022-11-27T19:01:52.268Z,19.13
2022-11-27T19:04:20.555Z,21.30
2022-11-27T19:06:48.738Z,20.43
2022-11-27T19:09:18.020Z,26.50
2022-11-27T19:11:47.588Z,20.73
2022-11-27T19:14:15.681Z,18.07
2022-11-27T19:16:46.925Z,24.23
2022-11-27T19:22:07.539Z,21.07
2022-11-27T19:24:35.618Z,18.37
2022-11-27T19:27:05.132Z,19.67
2022-11-27T19:29:33.248Z,22.47
2022-11-27T19:32:01.566Z,20.80
2022-11-27T19:34:29.868Z,17.27
2022-11-27T19:36:58.448Z,17.80
2022-11-27T19:39:27.850Z,19.33
2022-11-27T19:41:57.921Z,18.30
2022-11-27T19:44:27.939Z,17.40
2022-11-27T19:46:56.061Z,17.50
2022-11-27T19:49:24.384Z,17.33
2022-11-27T19:51:52.491Z,15.93
2022-11-27T19:54:21.861Z,17.93
2022-11-27T19:56:49.984Z,17.07
2022-11-27T19:59:22.773Z,17.00
2022-11-27T20:01:54.896Z,14.00
2022-11-27T20:04:23.012Z,15.00
2022-11-27T20:06:52.986Z,18.73
2022-11-27T20:09:21.107Z,26.50
2022-11-27T20:11:49.228Z,18.33
2022-11-27T20:14:17.344Z,14.97
2022-11-27T20:16:45.518Z,15.23
2022-11-27T20:19:15.023Z,14.40
2022-11-27T20:21:43.294Z,15.90
2022-11-27T20:24:11.859Z,15.10
2022-11-27T20:26:42.846Z,14.10
2022-11-27T20:29:11.764Z,13.40
2022-11-27T20:31:41.925Z,15.70
2022-11-27T20:34:10.305Z,14.23
2022-11-27T20:36:41.009Z,14.63
2022-11-27T20:39:12.972Z,15.33
2022-11-27T20:41:43.136Z,11.90
2022-11-27T20:44:15.863Z,12.27
2022-11-27T20:46:43.957Z,14.97
2022-11-27T20:49:12.184Z,15.20
2022-11-27T20:51:42.237Z,14.57
2022-11-27T20:54:11.687Z,13.37
2022-11-27T20:56:40.896Z,14.43
2022-11-27T20:59:09.009Z,13.67
2022-11-27T21:01:38.631Z,15.93
2022-11-27T21:04:09.555Z,13.57
2022-11-27T21:06:43.785Z,12.43
2022-11-27T21:09:14.902Z,13.00
2022-11-27T21:11:43.997Z,14.43
2022-11-27T21:14:14.224Z,13.13
2022-11-27T21:16:46.922Z,14.37
2022-11-27T21:19:18.500Z,15.40
2022-11-27T21:21:46.699Z,13.83
2022-11-27T21:24:16.318Z,14.17
2022-11-27T21:26:44.980Z,14.20
2022-11-27T21:29:14.343Z,13.90
2022-11-27T21:31:46.850Z,14.27
2022-11-27T21:34:16.262Z,15.60
2022-11-27T21:36:44.294Z,12.67
2022-11-27T21:39:20.320Z,13.17
2022-11-27T21:41:49.730Z,11.93
2022-11-27T21:44:18.241Z,14.03
2022-11-27T21:46:47.033Z,13.53
2022-11-27T21:49:16.926Z,12.80
2022-11-27T21:51:45.142Z,13.17
2022-11-27T21:54:16.012Z,13.50
2022-11-27T21:56:44.126Z,13.30
2022-11-27T21:59:14.098Z,12.33
2022-11-27T22:01:42.406Z,15.53
2022-11-27T22:04:10.567Z,13.80
2022-11-27T22:06:39.998Z,12.90
2022-11-27T22:09:13.573Z,14.50
2022-11-27T22:11:45.816Z,15.73
2022-11-27T22:14:16.431Z,13.33
2022-11-27T22:16:46.366Z,13.50
2022-11-27T22:19:15.469Z,12.80
2022-11-27T22:21:43.854Z,13.83
2022-11-27T22:24:16.757Z,13.40
2022-11-27T22:26:48.494Z,13.97
2022-11-27T22:29:16.814Z,13.40
2022-11-27T22:31:44.918Z,13.20
2022-11-27T22:34:13.063Z,12.97
2022-11-27T22:36:41.112Z,13.30
2022-11-27T22:39:09.940Z,15.93
2022-11-27T22:41:39.774Z,14.40
2022-11-27T22:44:10.346Z,13.20
2022-11-27T22:46:41.477Z,26.53
2022-11-27T22:49:11.239Z,12.10
2022-11-27T22:51:39.663Z,12.43
2022-11-27T22:54:10.323Z,12.23
2022-11-27T22:56:38.497Z,13.43
2022-11-27T22:59:31.514Z,11.37
2022-11-27T23:01:57.027Z,13.67
2022-11-27T23:04:25.174Z,13.80
2022-11-27T23:06:53.224Z,12.73
2022-11-27T23:09:21.420Z,12.43
2022-11-27T23:11:49.669Z,12.97
2022-11-27T23:14:19.274Z,13.67
2022-11-27T23:16:47.403Z,15.07
2022-11-27T23:19:15.680Z,12.27
2022-11-27T23:21:43.720Z,13.10
2022-11-27T23:24:14.127Z,15.17
2022-11-27T23:26:42.735Z,13.07
2022-11-27T23:29:11.220Z,11.73
2022-11-27T23:31:41.149Z,39.47
2022-11-27T23:34:13.280Z,18.87
2022-11-27T23:36:41.356Z,13.57
2022-11-27T23:39:12.215Z,25.73
2022-11-27T23:41:40.826Z,15.63
2022-11-27T23:44:08.997Z,12.20
2022-11-27T23:46:37.068Z,12.83
2022-11-27T23:49:06.592Z,12.27
2022-11-27T23:51:34.933Z,13.47
2022-11-27T23:54:07.208Z,12.77
2022-11-27T23:56:35.297Z,15.93
2022-11-27T23:59:03.473Z,14.17
